Time;durP1;ratioP1;P1;durP2;ratioP2;P2;SDS_P1;SDS_P2;PMS_P1;PMS_P2;Temp;Humidity;BMP_temperature;BMP_pressure;BME280_temperature;BME280_humidity;BME280_pressure;Samples;Min_cycle;Max_cycle;Signal;HPM_P1;HPM_P2
2023/02/09 00:00:11;;;;;;;22.17;12.00;;;-3.40;91.90;;;;;;4953054;28;20211;-91
2023/02/09 00:02:38;;;;;;;25.27;12.87;;;-3.40;91.80;;;;;;4973204;28;20197;-91
2023/02/09 00:05:27;;;;;;;24.10;12.17;;;-3.50;91.70;;;;;;4952577;28;20217;-91
2023/02/09 00:07:55;;;;;;;26.03;12.40;;;-3.60;91.50;;;;;;4957137;29;20227;-91
2023/02/09 00:10:22;;;;;;;24.43;12.97;;;-3.90;91.30;;;;;;4951615;29;20188;-91
2023/02/09 00:19:17;;;;;;;28.77;13.43;;;-4.60;93.00;;;;;;4957476;29;20298;-90
2023/02/09 00:21:44;;;;;;;26.20;14.10;;;-4.60;93.10;;;;;;4940894;29;20193;-90
2023/02/09 06:26:24;;;;;;;24.73;12.50;;;-6.00;93.70;;;;;;4977503;28;20224;-90
2023/02/09 06:28:51;;;;;;;36.30;13.17;;;-5.90;93.70;;;;;;4946189;28;20208;-85
2023/02/09 06:31:19;;;;;;;22.77;11.50;;;-5.90;92.80;;;;;;4979757;28;20209;-88
2023/02/09 06:33:45;;;;;;;25.27;11.83;;;-5.80;92.80;;;;;;4978668;28;20209;-87
2023/02/09 06:36:12;;;;;;;23.87;12.23;;;-5.70;92.80;;;;;;4960380;28;20212;-88
2023/02/09 06:38:56;;;;;;;29.03;12.47;;;-5.60;93.20;;;;;;4977548;28;20789;-90
2023/02/09 06:44:06;;;;;;;23.23;12.13;;;-5.80;92.10;;;;;;4974984;28;20244;-94
2023/02/09 06:50:32;;;;;;;19.97;11.70;;;-6.10;92.70;;;;;;4979626;28;20236;-92
2023/02/09 06:52:59;;;;;;;21.67;10.77;;;-6.00;92.80;;;;;;4965059;28;20200;-91
2023/02/09 06:55:50;;;;;;;21.10;11.20;;;-5.90;94.20;;;;;;5084046;23;20258;-94
2023/02/09 07:04:46;;;;;;;21.80;10.30;;;-5.50;92.40;;;;;;4928678;28;20198;-90
2023/02/09 07:07:17;;;;;;;18.07;9.07;;;-5.60;91.80;;;;;;4927054;28;20205;-94
2023/02/09 07:09:44;;;;;;;25.70;9.50;;;-5.80;91.90;;;;;;4943143;29;20651;-91
2023/02/09 07:16:02;;;;;;;136.07;63.90;;;-5.70;92.10;;;;;;4926390;29;20311;-90
2023/02/09 07:21:54;;;;;;;96.67;41.97;;;-4.80;93.00;;;;;;4937771;29;20199;-92
2023/02/09 07:24:21;;;;;;;171.43;71.63;;;-4.30;92.10;;;;;;4933944;29;20231;-92
2023/02/09 07:26:48;;;;;;;120.50;52.63;;;-4.20;92.50;;;;;;4916646;29;20219;-92
2023/02/09 07:29:14;;;;;;;67.03;30.10;;;-3.90;90.90;;;;;;4889381;29;20212;-92
2023/02/09 07:31:43;;;;;;;43.60;21.17;;;-3.70;90.30;;;;;;4929939;29;20683;-92
2023/02/09 07:34:10;;;;;;;37.73;17.03;;;-3.70;88.60;;;;;;4961454;28;20208;-92
2023/02/09 07:36:37;;;;;;;34.13;17.27;;;-3.50;88.20;;;;;;4955703;29;20204;-93
2023/02/09 07:39:04;;;;;;;27.67;12.47;;;-3.50;88.50;;;;;;4972563;29;20231;-93
2023/02/09 07:41:31;;;;;;;22.80;11.67;;;-3.60;86.80;;;;;;4969349;29;20204;-94
2023/02/09 07:43:58;;;;;;;46.43;23.30;;;-3.60;88.60;;;;;;4941782;29;20207;-94
2023/02/09 07:46:25;;;;;;;111.87;52.10;;;-3.30;88.50;;;;;;4954392;28;20211;-91
2023/02/09 07:48:56;;;;;;;58.13;28.30;;;-3.40;90.20;;;;;;4955217;28;20606;-90
2023/02/09 07:51:25;;;;;;;94.03;45.97;;;-3.00;89.50;;;;;;4957739;28;20213;-90
2023/02/09 07:53:52;;;;;;;57.80;29.67;;;-2.50;85.70;;;;;;4953226;28;20669;-88
2023/02/09 07:56:19;;;;;;;24.30;12.60;;;-2.00;81.30;;;;;;4954938;28;20267;-86
2023/02/09 07:58:46;;;;;;;34.73;17.27;;;-1.90;75.40;;;;;;4949021;28;20229;-85
2023/02/09 08:01:14;;;;;;;21.97;12.17;;;-1.70;77.30;;;;;;4960999;28;20613;-87
2023/02/09 08:03:44;;;;;;;19.23;10.90;;;-1.70;73.20;;;;;;4957586;28;20197;-85
2023/02/09 08:06:17;;;;;;;18.27;10.27;;;-1.70;75.70;;;;;;4945063;28;20205;-86
2023/02/09 08:08:44;;;;;;;15.23;8.97;;;-1.80;75.50;;;;;;4950389;28;20210;-89
2023/02/09 08:11:13;;;;;;;21.57;9.43;;;-2.10;76.00;;;;;;4947752;28;20659;-86
2023/02/09 08:13:40;;;;;;;15.43;9.10;;;-2.00;77.20;;;;;;4944578;28;20252;-87
2023/02/09 08:16:11;;;;;;;16.60;9.00;;;-2.30;81.20;;;;;;4952989;28;20208;-86
2023/02/09 08:18:41;;;;;;;15.77;8.50;;;-2.50;84.20;;;;;;4940776;28;20225;-86
2023/02/09 08:21:12;;;;;;;14.13;8.90;;;-2.60;85.20;;;;;;4943811;28;20552;-86
2023/02/09 08:23:43;;;;;;;17.00;8.80;;;-2.60;85.00;;;;;;4940805;28;20233;-86
2023/02/09 08:26:13;;;;;;;14.50;8.47;;;-2.50;86.00;;;;;;4942015;28;20213;-86
2023/02/09 08:28:43;;;;;;;15.50;8.60;;;-2.10;84.50;;;;;;4946088;28;20758;-86
2023/02/09 08:31:10;;;;;;;14.23;8.30;;;-1.70;80.60;;;;;;4934607;28;20209;-86
2023/02/09 08:33:36;;;;;;;14.70;8.70;;;-1.60;78.50;;;;;;4949208;28;20449;-86
2023/02/09 08:36:03;;;;;;;14.73;8.20;;;-1.30;78.60;;;;;;4952331;28;20243;-86
2023/02/09 08:38:30;;;;;;;13.83;8.20;;;-0.90;77.20;;;;;;4958426;28;20236;-87
2023/02/09 08:41:03;;;;;;;15.63;8.10;;;-0.70;75.60;;;;;;4946346;28;20216;-86
2023/02/09 08:43:30;;;;;;;18.43;8.17;;;-0.30;71.90;;;;;;4953864;28;20209;-88
2023/02/09 08:46:02;;;;;;;15.50;7.97;;;-0.40;68.50;;;;;;4947258;28;20216;-84
2023/02/09 08:48:30;;;;;;;12.47;7.93;;;-0.20;67.80;;;;;;4941315;28;20213;-85
2023/02/09 08:50:57;;;;;;;14.37;7.70;;;-0.30;68.50;;;;;;4951586;28;20223;-83
2023/02/09 08:53:25;;;;;;;14.40;7.60;;;0.00;67.40;;;;;;4939810;28;20206;-82
2023/02/09 08:55:52;;;;;;;14.20;7.80;;;0.30;64.70;;;;;;4942490;28;20234;-84
2023/02/09 08:58:21;;;;;;;13.43;7.53;;;0.50;61.70;;;;;;4929198;29;20221;-83
2023/02/09 09:00:47;;;;;;;12.67;7.57;;;0.60;63.50;;;;;;4937223;28;20212;-84
2023/02/09 09:03:14;;;;;;;11.87;6.97;;;0.80;54.50;;;;;;4922338;29;20208;-84
2023/02/09 09:05:41;;;;;;;12.87;7.33;;;1.10;57.00;;;;;;4927526;29;20554;-84
2023/02/09 09:08:08;;;;;;;13.43;6.43;;;1.60;48.40;;;;;;4928563;29;20535;-87
2023/02/09 09:10:35;;;;;;;11.00;6.37;;;1.90;50.50;;;;;;4936808;29;20202;-87
2023/02/09 09:13:02;;;;;;;9.37;6.80;;;2.60;42.70;;;;;;4940779;29;20220;-89
2023/02/09 09:15:30;;;;;;;11.75;7.00;;;2.80;37.40;;;;;;4939745;29;20260;-89
2023/02/09 09:17:57;;;;;;;8.75;6.50;;;3.20;37.10;;;;;;4938293;29;20220;-89
2023/02/09 09:20:24;;;;;;;11.30;7.32;;;3.50;34.00;;;;;;4940586;29;20294;-89
2023/02/09 09:22:51;;;;;;;11.95;7.15;;;3.60;33.90;;;;;;4938607;29;20205;-88
2023/02/09 09:25:18;;;;;;;12.00;6.78;;;4.00;33.80;;;;;;5478243;23;20235;-89
2023/02/09 09:27:45;;;;;;;11.95;6.90;;;4.40;29.30;;;;;;5012781;28;20534;-89
2023/02/09 09:30:13;;;;;;;9.23;6.68;;;5.00;27.80;;;;;;5012230;28;20209;-90
2023/02/09 09:32:41;;;;;;;9.35;6.90;;;6.30;23.40;;;;;;5013299;28;20207;-88
2023/02/09 09:35:09;;;;;;;9.77;6.45;;;6.70;21.40;;;;;;5008247;28;20672;-88
2023/02/09 09:37:36;;;;;;;11.45;6.93;;;6.80;21.90;;;;;;4992085;28;20784;-88
2023/02/09 09:40:03;;;;;;;9.60;6.80;;;7.30;20.80;;;;;;5009350;28;20350;-87
2023/02/09 09:42:35;;;;;;;10.02;6.82;;;7.90;16.90;;;;;;5010640;28;20196;-90
2023/02/09 09:47:59;;;;;;;8.30;6.82;;;9.30;16.10;;;;;;5003779;28;20207;-89
2023/02/09 09:50:30;;;;;;;14.73;7.05;;;9.40;14.60;;;;;;5007721;28;20564;-90
2023/02/09 09:55:54;;;;;;;7.75;6.63;;;8.30;15.10;;;;;;5014182;28;20231;-93
2023/02/09 09:58:21;;;;;;;13.50;7.07;;;7.70;16.50;;;;;;5036007;28;20214;-89
2023/02/09 11:00:43;;;;;;;6.15;4.60;;;8.00;14.40;;;;;;5139256;23;20239;-88
2023/02/09 11:03:17;;;;;;;10.70;9.10;;;8.00;13.30;;;;;;5002794;28;20200;-87
2023/02/09 11:05:46;;;;;;;7.00;4.65;;;8.20;13.90;;;;;;5017137;28;20602;-88
2023/02/09 11:08:17;;;;;;;7.20;5.35;;;7.70;15.10;;;;;;4986022;28;20644;-88
2023/02/09 11:10:55;;;;;;;7.90;5.28;;;7.30;16.50;;;;;;4988236;28;20208;-87
2023/02/09 11:13:24;;;;;;;12.18;9.15;;;7.20;16.80;;;;;;4997278;28;20204;-87
2023/02/09 11:16:20;;;;;;;8.40;4.93;;;7.30;17.20;;;;;;4994393;28;20214;-87
2023/02/09 11:18:58;;;;;;;10.00;5.47;;;7.20;16.50;;;;;;4988898;28;20234;-88
2023/02/09 11:21:49;;;;;;;9.75;4.80;;;7.00;16.20;;;;;;4992253;28;20192;-87
2023/02/09 11:24:24;;;;;;;10.25;5.30;;;7.90;14.50;;;;;;4993181;28;20220;-85
2023/02/09 11:26:56;;;;;;;10.63;6.13;;;7.60;14.60;;;;;;4979668;28;20206;-84
2023/02/09 11:29:41;;;;;;;7.03;5.20;;;7.40;16.10;;;;;;4974754;28;20230;-86
2023/02/09 11:32:19;;;;;;;7.90;5.22;;;7.10;16.00;;;;;;4990004;28;20679;-86
2023/02/09 11:34:59;;;;;;;10.65;4.93;;;6.70;17.40;;;;;;4991773;28;20208;-85
2023/02/09 11:37:36;;;;;;;7.75;5.10;;;6.30;18.10;;;;;;4987898;28;20204;-86
2023/02/09 11:40:19;;;;;;;8.75;5.82;;;6.00;18.50;;;;;;4987722;28;20219;-85
2023/02/09 11:42:50;;;;;;;11.63;4.70;;;5.80;19.70;;;;;;4985363;28;20227;-87
2023/02/09 11:45:23;;;;;;;8.50;5.30;;;5.90;18.50;;;;;;4987710;28;20950;-87
2023/02/09 11:47:59;;;;;;;13.15;7.03;;;6.00;18.90;;;;;;4985695;28;20951;-85
2023/02/09 11:50:30;;;;;;;10.87;5.40;;;6.10;18.80;;;;;;4990261;28;20233;-86
2023/02/09 11:53:01;;;;;;;14.67;5.63;;;5.90;20.10;;;;;;4972192;28;20212;-86
2023/02/09 11:55:33;;;;;;;9.77;5.17;;;5.90;20.00;;;;;;4991003;28;20204;-90
2023/02/09 11:58:29;;;;;;;12.93;5.67;;;5.90;19.40;;;;;;4985678;28;20327;-85
2023/02/09 12:01:03;;;;;;;11.80;7.40;;;5.90;19.20;;;;;;4988382;28;20239;-87
2023/02/09 12:03:32;;;;;;;10.60;6.90;;;6.10;19.90;;;;;;4993675;28;20277;-86
2023/02/09 12:05:59;;;;;;;11.60;5.90;;;6.00;21.00;;;;;;4993079;28;20564;-88
2023/02/09 12:08:46;;;;;;;14.40;6.03;;;6.00;21.20;;;;;;4991418;28;20218;-87
2023/02/09 12:11:36;;;;;;;11.47;6.10;;;5.80;19.70;;;;;;4991357;28;20203;-90
2023/02/09 12:14:28;;;;;;;10.10;6.70;;;5.90;20.00;;;;;;4991176;28;20203;-84
2023/02/09 12:17:16;;;;;;;10.23;6.93;;;5.90;20.10;;;;;;4991031;28;20210;-88
2023/02/09 12:20:18;;;;;;;13.83;7.27;;;6.00;20.00;;;;;;4992011;28;20255;-88
2023/02/09 13:46:03;;;;;;;12.17;8.13;;;5.80;21.90;;;;;;5990853;23;20191;-87
2023/02/09 13:48:31;;;;;;;11.40;7.67;;;5.80;21.90;;;;;;5028126;28;20196;-85
2023/02/09 13:51:00;;;;;;;11.13;7.73;;;5.80;21.90;;;;;;5029014;28;20362;-84
2023/02/09 14:08:08;;;;;;;11.53;7.47;;;5.60;23.10;;;;;;4998362;28;20196;-84
2023/02/09 14:10:37;;;;;;;11.63;7.37;;;5.50;21.70;;;;;;4995280;28;20192;-84
2023/02/09 14:13:07;;;;;;;13.57;7.73;;;5.50;22.80;;;;;;4997253;28;20648;-85
2023/02/09 14:43:57;;;;;;;13.00;8.03;;;5.40;24.20;;;;;;5088327;23;20247;-85
2023/02/09 14:46:24;;;;;;;10.87;7.60;;;5.40;24.30;;;;;;4996118;28;20204;-84
2023/02/09 14:52:18;;;;;;;16.43;8.27;;;5.40;23.80;;;;;;4996007;28;20656;-84
2023/02/09 14:54:48;;;;;;;15.30;8.40;;;5.30;25.10;;;;;;4996540;28;20242;-84
2023/02/09 15:01:00;;;;;;;17.23;8.87;;;5.00;25.10;;;;;;4998024;28;20239;-84
2023/02/09 15:03:26;;;;;;;13.40;8.97;;;4.90;26.40;;;;;;4986292;28;20204;-85
2023/02/09 15:05:57;;;;;;;13.13;8.20;;;4.90;26.50;;;;;;4996768;28;20192;-83
2023/02/09 16:07:03;;;;;;;16.73;10.70;;;3.60;41.00;;;;;;5402744;23;20272;-85
2023/02/09 16:09:53;;;;;;;19.77;9.87;;;3.60;42.30;;;;;;4972810;28;20201;-82
2023/02/09 16:12:20;;;;;;;15.50;10.23;;;3.50;43.00;;;;;;4968234;28;20209;-86
2023/02/09 16:14:47;;;;;;;17.00;9.97;;;3.50;43.10;;;;;;4961005;28;20208;-85
2023/02/09 16:17:34;;;;;;;21.53;10.27;;;3.40;43.00;;;;;;4958060;28;20208;-85
2023/02/09 16:20:01;;;;;;;27.33;10.93;;;3.30;44.50;;;;;;4965204;28;20232;-86
2023/02/09 16:22:29;;;;;;;19.30;11.47;;;3.20;46.20;;;;;;4974939;28;20204;-82
2023/02/09 16:27:31;;;;;;;22.47;11.53;;;3.20;48.40;;;;;;5772589;23;20235;-81
2023/02/09 16:29:58;;;;;;;22.47;11.37;;;3.20;49.20;;;;;;4980609;28;20213;-81
2023/02/09 16:32:27;;;;;;;19.10;12.13;;;3.20;49.70;;;;;;4990298;28;20215;-83
2023/02/09 16:34:54;;;;;;;15.30;11.10;;;3.10;51.70;;;;;;4986046;28;20345;-82
2023/02/09 16:37:28;;;;;;;19.50;11.77;;;3.00;53.30;;;;;;4989311;28;20558;-81
2023/02/09 16:39:57;;;;;;;23.60;12.43;;;2.90;52.80;;;;;;4980538;28;20306;-82
2023/02/09 16:42:25;;;;;;;19.33;11.97;;;2.90;54.40;;;;;;4984987;28;20274;-83
2023/02/09 16:44:52;;;;;;;22.20;13.10;;;2.80;54.80;;;;;;4995145;28;20599;-88
2023/02/09 16:47:24;;;;;;;18.93;12.70;;;2.70;56.70;;;;;;4989259;28;20200;-82
2023/02/09 16:49:59;;;;;;;21.57;12.30;;;2.60;59.50;;;;;;4991858;28;20715;-84
2023/02/09 16:52:28;;;;;;;19.93;11.80;;;2.60;59.30;;;;;;4992565;28;20668;-85
2023/02/09 16:54:59;;;;;;;20.63;11.83;;;2.40;60.60;;;;;;4991789;28;20206;-85
2023/02/09 16:57:27;;;;;;;18.37;11.93;;;2.30;66.90;;;;;;4996180;28;20204;-84
2023/02/09 16:59:54;;;;;;;23.13;12.63;;;2.20;66.80;;;;;;4992774;28;20238;-84
2023/02/09 17:05:31;;;;;;;27.43;12.37;;;2.10;67.20;;;;;;4979318;28;20242;-85
2023/02/09 17:08:01;;;;;;;24.70;12.17;;;2.10;66.70;;;;;;4993404;28;20200;-85
2023/02/09 17:10:31;;;;;;;20.90;12.23;;;2.20;66.80;;;;;;4990794;28;20191;-85
2023/02/09 17:13:00;;;;;;;22.87;12.27;;;2.10;66.70;;;;;;4992973;28;20208;-89
2023/02/09 17:15:39;;;;;;;21.30;12.77;;;2.10;66.60;;;;;;4997668;28;20223;-89
2023/02/09 17:18:09;;;;;;;26.60;13.40;;;2.00;68.00;;;;;;4996425;28;20652;-90
2023/02/09 17:26:29;;;;;;;32.57;13.47;;;1.70;74.90;;;;;;5270626;23;20297;-89
2023/02/09 17:29:07;;;;;;;28.23;13.30;;;1.60;75.20;;;;;;4987726;28;20282;-85
2023/02/09 17:34:19;;;;;;;28.40;13.13;;;1.50;77.20;;;;;;4990708;28;20200;-91
2023/02/09 17:36:46;;;;;;;30.33;14.20;;;1.40;77.50;;;;;;5000559;28;20207;-91
2023/02/09 17:39:15;;;;;;;25.73;14.50;;;1.30;78.90;;;;;;4998132;28;20363;-90
2023/02/09 17:41:47;;;;;;;24.33;13.93;;;1.20;78.70;;;;;;4992982;28;20206;-92
2023/02/09 17:44:17;;;;;;;31.53;13.93;;;1.10;80.50;;;;;;4984374;28;20208;-89
2023/02/09 17:46:44;;;;;;;26.77;13.83;;;1.10;81.80;;;;;;4982081;28;20684;-89
2023/02/09 17:49:11;;;;;;;25.47;14.63;;;1.10;81.80;;;;;;4994273;28;20350;-87
2023/02/09 17:51:48;;;;;;;32.67;14.67;;;1.00;81.70;;;;;;4993671;28;20286;-86
2023/02/09 17:54:21;;;;;;;28.00;14.00;;;1.00;81.50;;;;;;4989042;28;20543;-86
2023/02/09 17:56:49;;;;;;;23.57;14.10;;;1.00;82.70;;;;;;4988634;28;20291;-91
2023/02/09 17:59:20;;;;;;;24.97;14.37;;;0.90;83.60;;;;;;4993001;28;20196;-91
2023/02/09 18:01:49;;;;;;;32.93;15.07;;;0.90;84.10;;;;;;4996151;28;20203;-85
2023/02/09 18:04:19;;;;;;;33.57;14.90;;;0.80;84.20;;;;;;4995389;28;20204;-84
2023/02/09 18:06:46;;;;;;;30.43;14.60;;;0.80;84.80;;;;;;4998600;28;20215;-89
2023/02/09 18:09:14;;;;;;;31.73;14.87;;;0.80;86.10;;;;;;4993801;28;20200;-85
2023/02/09 18:11:58;;;;;;;34.97;16.10;;;0.70;85.80;;;;;;4997787;28;20702;-88
2023/02/09 18:14:27;;;;;;;27.57;15.20;;;0.70;85.90;;;;;;4995148;28;20682;-86
2023/02/09 18:16:54;;;;;;;33.70;16.43;;;0.70;86.20;;;;;;4994032;28;20203;-92
2023/02/09 18:19:22;;;;;;;31.90;17.07;;;0.70;86.20;;;;;;4996871;28;20694;-90
2023/02/09 18:21:51;;;;;;;43.50;18.03;;;0.70;86.20;;;;;;4994189;28;20210;-89
2023/02/09 18:24:18;;;;;;;32.30;17.47;;;0.60;86.20;;;;;;4990653;28;20234;-86
2023/02/09 18:26:46;;;;;;;37.40;18.03;;;0.60;86.20;;;;;;4986734;28;20259;-87
2023/02/09 18:29:15;;;;;;;32.23;19.03;;;0.60;86.20;;;;;;4991932;28;20211;-86
2023/02/09 18:31:42;;;;;;;37.70;20.43;;;0.50;86.20;;;;;;4998005;28;20211;-89
2023/02/09 18:34:09;;;;;;;37.43;20.00;;;0.60;87.10;;;;;;5002566;28;20563;-88
2023/02/09 18:36:37;;;;;;;38.17;20.60;;;0.60;86.20;;;;;;4988104;28;20300;-89
2023/02/09 18:39:04;;;;;;;37.33;20.47;;;0.60;86.20;;;;;;4984907;28;20239;-90
2023/02/09 18:41:31;;;;;;;45.57;23.10;;;0.60;86.20;;;;;;4992312;28;20234;-87
2023/02/09 18:43:58;;;;;;;54.70;25.63;;;0.60;87.10;;;;;;4996705;28;20644;-86
2023/02/09 18:46:26;;;;;;;43.87;22.10;;;0.60;86.30;;;;;;4996389;28;20262;-89
2023/02/09 18:48:54;;;;;;;38.40;20.97;;;0.50;87.10;;;;;;4989785;28;20208;-85
2023/02/09 18:51:21;;;;;;;42.63;21.10;;;0.50;87.30;;;;;;4985127;28;20263;-85
2023/02/09 18:53:48;;;;;;;38.30;20.40;;;0.50;87.70;;;;;;4986442;28;20766;-85
2023/02/09 18:56:18;;;;;;;35.73;20.30;;;0.40;89.00;;;;;;4989012;28;20637;-85
2023/02/09 18:58:45;;;;;;;42.30;20.47;;;0.30;89.30;;;;;;4983422;28;20299;-90
2023/02/09 19:01:12;;;;;;;42.47;18.40;;;0.30;89.70;;;;;;4983958;28;20274;-85
2023/02/09 19:03:40;;;;;;;36.87;19.57;;;0.20;89.80;;;;;;4992476;28;20200;-85
2023/02/09 19:06:10;;;;;;;38.83;19.77;;;0.20;90.10;;;;;;4982591;28;20208;-84
2023/02/09 19:08:38;;;;;;;37.30;19.27;;;0.10;90.30;;;;;;4989299;28;20211;-86
2023/02/09 19:11:05;;;;;;;38.17;20.30;;;0.00;90.40;;;;;;4987503;28;20204;-86
2023/02/09 19:13:34;;;;;;;41.30;20.27;;;0.00;90.60;;;;;;4982244;28;20206;-86
2023/02/09 19:16:01;;;;;;;38.67;19.97;;;0.00;90.80;;;;;;4987171;28;20236;-87
2023/02/09 19:18:29;;;;;;;39.03;19.73;;;-0.10;91.00;;;;;;4978365;28;20646;-87
2023/02/09 19:20:58;;;;;;;43.43;21.00;;;-0.10;91.20;;;;;;4989227;28;20224;-88
2023/02/09 19:23:26;;;;;;;39.10;20.23;;;-0.10;91.30;;;;;;4994760;28;20712;-87
2023/02/09 19:26:01;;;;;;;39.73;20.60;;;0.00;91.10;;;;;;4993542;28;20692;-86
2023/02/09 19:28:28;;;;;;;39.83;19.63;;;0.00;90.90;;;;;;4990206;28;20230;-86
2023/02/09 19:30:55;;;;;;;40.73;20.53;;;0.10;90.80;;;;;;4990761;28;20204;-86
2023/02/09 19:33:22;;;;;;;35.33;20.07;;;0.10;91.00;;;;;;4985536;28;20211;-89
2023/02/09 19:35:57;;;;;;;43.33;19.23;;;0.00;91.10;;;;;;4994617;28;20208;-86
2023/02/09 19:38:25;;;;;;;43.67;20.40;;;0.00;91.30;;;;;;4991267;28;20211;-86
2023/02/09 19:40:52;;;;;;;40.33;20.07;;;0.00;91.30;;;;;;4989040;28;20273;-86
2023/02/09 19:43:19;;;;;;;43.77;20.47;;;-0.10;91.30;;;;;;4989133;28;20222;-87
2023/02/09 19:45:46;;;;;;;42.33;20.03;;;-0.10;91.70;;;;;;4989239;28;20203;-86
2023/02/09 20:00:54;;;;;;;41.87;19.77;;;-0.20;92.10;;;;;;4989234;28;21121;-86
2023/02/09 20:03:21;;;;;;;37.37;20.00;;;-0.20;92.10;;;;;;4986980;28;20219;-87
2023/02/09 20:05:49;;;;;;;31.97;18.83;;;-0.20;92.20;;;;;;4985360;28;20291;-87
2023/02/09 20:08:18;;;;;;;47.30;19.40;;;-0.10;91.90;;;;;;4983097;28;20204;-88
2023/02/09 20:10:45;;;;;;;37.47;18.63;;;-0.10;91.50;;;;;;4990000;28;20219;-88
2023/02/09 20:13:13;;;;;;;43.97;19.93;;;-0.20;91.70;;;;;;4984963;28;20216;-86
2023/02/09 20:15:40;;;;;;;38.83;19.10;;;-0.10;91.40;;;;;;4989253;28;20203;-87
2023/02/09 20:18:09;;;;;;;37.27;18.77;;;-0.20;91.70;;;;;;4998567;28;20452;-90
2023/02/09 20:20:39;;;;;;;35.83;19.67;;;-0.30;92.20;;;;;;4981693;28;20260;-86
2023/02/09 20:23:06;;;;;;;36.63;19.50;;;-0.30;91.90;;;;;;4985933;28;20211;-87
2023/02/09 20:25:33;;;;;;;39.63;20.70;;;-0.30;92.30;;;;;;4990824;28;20243;-88
2023/02/09 20:28:00;;;;;;;42.13;20.87;;;-0.40;92.50;;;;;;4988465;28;20661;-87
2023/02/09 20:30:27;;;;;;;47.73;21.63;;;-0.40;92.70;;;;;;4990504;28;20211;-87
2023/02/09 20:32:54;;;;;;;44.97;21.97;;;-0.30;92.80;;;;;;4986506;28;20200;-87
2023/02/09 20:35:22;;;;;;;44.73;22.50;;;-0.20;92.60;;;;;;4991038;28;20204;-86
2023/02/09 20:37:51;;;;;;;40.93;21.57;;;-0.20;92.30;;;;;;4992371;28;20215;-88
2023/02/09 20:40:19;;;;;;;53.47;22.60;;;-0.10;92.40;;;;;;4989165;28;21636;-88
2023/02/09 20:48:14;;;;;;;40.07;21.43;;;-0.20;92.00;;;;;;4988231;28;20257;-87
2023/02/09 20:50:43;;;;;;;45.13;21.47;;;-0.30;92.20;;;;;;4977378;28;20207;-88
2023/02/09 20:53:10;;;;;;;42.60;21.77;;;-0.40;92.30;;;;;;4977861;28;20257;-87
2023/02/09 20:55:37;;;;;;;39.53;20.77;;;-0.40;92.30;;;;;;4980968;28;20206;-88
2023/02/09 20:58:04;;;;;;;36.50;21.13;;;-0.40;92.40;;;;;;4985287;28;20203;-87
2023/02/09 21:00:31;;;;;;;35.87;20.50;;;-0.40;92.30;;;;;;4989476;28;20314;-91
2023/02/09 21:02:58;;;;;;;40.90;20.93;;;-0.50;92.30;;;;;;4985805;28;20739;-89
2023/02/09 21:05:24;;;;;;;39.07;21.23;;;-0.60;92.40;;;;;;4985654;28;20206;-88
2023/02/09 21:07:54;;;;;;;44.00;22.17;;;-0.60;92.90;;;;;;4982142;28;20221;-87
2023/02/09 21:10:21;;;;;;;41.87;19.73;;;-0.60;92.60;;;;;;4992456;28;20582;-88
2023/02/09 21:12:48;;;;;;;38.67;19.77;;;-0.60;92.70;;;;;;4987108;28;20219;-87
2023/02/09 21:15:15;;;;;;;34.47;19.37;;;-0.70;92.60;;;;;;4989086;28;20679;-87
2023/02/09 21:17:46;;;;;;;42.93;19.17;;;-0.70;92.80;;;;;;4988812;28;20212;-88
2023/02/09 21:20:13;;;;;;;33.90;18.40;;;-0.70;92.90;;;;;;5002795;28;20214;-89
2023/02/09 21:22:40;;;;;;;36.17;17.77;;;-0.80;92.90;;;;;;5011085;28;20202;-90
2023/02/09 21:25:08;;;;;;;36.00;18.37;;;-0.80;92.90;;;;;;5015608;28;20306;-89
2023/02/09 21:27:36;;;;;;;32.03;18.10;;;-0.80;92.80;;;;;;4994184;28;20199;-88
2023/02/09 21:30:03;;;;;;;28.90;17.73;;;-0.80;92.80;;;;;;4981359;28;20242;-88
2023/02/09 21:32:32;;;;;;;31.23;17.87;;;-0.80;92.70;;;;;;4989315;28;20215;-87
2023/02/09 21:34:59;;;;;;;32.13;16.60;;;-0.80;92.70;;;;;;4988392;28;20234;-87
2023/02/09 21:37:28;;;;;;;35.43;18.50;;;-0.90;92.70;;;;;;4988827;28;20198;-87
2023/02/09 21:39:55;;;;;;;36.23;18.63;;;-1.00;92.90;;;;;;4980282;28;20201;-87
2023/02/09 21:42:27;;;;;;;34.87;17.47;;;-1.10;93.30;;;;;;4984945;28;20235;-87
2023/02/09 21:44:54;;;;;;;34.10;17.50;;;-1.10;93.40;;;;;;4984439;28;20198;-88
2023/02/09 21:47:24;;;;;;;34.40;17.37;;;-1.10;93.60;;;;;;4989579;28;20213;-87
2023/02/09 21:49:51;;;;;;;40.23;17.80;;;-1.10;93.60;;;;;;4984361;28;20203;-87
2023/02/09 21:52:18;;;;;;;37.40;17.13;;;-1.20;93.50;;;;;;4988430;28;20933;-88
2023/02/09 21:54:45;;;;;;;35.73;18.93;;;-1.20;93.80;;;;;;4989527;28;20295;-91
2023/02/09 21:57:11;;;;;;;38.57;18.60;;;-1.30;93.70;;;;;;4982403;28;20307;-87
2023/02/09 21:59:40;;;;;;;36.20;18.30;;;-1.30;93.70;;;;;;4991353;28;20195;-88
2023/02/09 22:02:07;;;;;;;32.03;18.37;;;-1.30;93.70;;;;;;4985197;28;20239;-87
2023/02/09 22:04:34;;;;;;;37.03;18.27;;;-1.30;93.70;;;;;;4989911;28;20201;-87
2023/02/09 22:07:01;;;;;;;32.53;17.87;;;-1.30;93.80;;;;;;4991210;28;20219;-87
2023/02/09 22:09:28;;;;;;;36.63;18.93;;;-1.30;94.00;;;;;;4983147;28;20207;-87
2023/02/09 22:11:55;;;;;;;35.33;19.03;;;-1.30;93.80;;;;;;4987059;28;20204;-89
2023/02/09 22:14:22;;;;;;;36.97;18.53;;;-1.40;94.00;;;;;;4985669;28;20217;-86
2023/02/09 22:16:51;;;;;;;32.87;17.90;;;-1.40;94.40;;;;;;4987767;28;20214;-88
2023/02/09 22:19:17;;;;;;;31.97;18.30;;;-1.30;94.30;;;;;;4988727;28;20221;-88
2023/02/09 22:21:44;;;;;;;33.20;18.50;;;-1.30;94.20;;;;;;4985413;28;20599;-89
2023/02/09 22:24:13;;;;;;;37.20;18.73;;;-1.30;93.80;;;;;;4993417;28;20623;-88
2023/02/09 22:26:40;;;;;;;30.37;17.57;;;-1.30;93.80;;;;;;4986119;28;20287;-88
2023/02/09 22:29:08;;;;;;;33.40;17.73;;;-1.20;93.80;;;;;;4990997;28;20610;-88
2023/02/09 22:31:35;;;;;;;32.00;16.83;;;-1.20;93.80;;;;;;4986993;28;20211;-89
2023/02/09 22:34:04;;;;;;;26.80;15.93;;;-1.10;93.80;;;;;;4975463;28;20666;-88
2023/02/09 22:36:31;;;;;;;30.87;16.70;;;-1.10;93.80;;;;;;4985792;28;20273;-88
2023/02/09 22:38:58;;;;;;;28.73;15.87;;;-1.00;93.50;;;;;;4987076;28;20558;-88
2023/02/09 22:41:25;;;;;;;32.00;16.20;;;-1.10;93.70;;;;;;4986757;28;20224;-89
2023/02/09 22:43:53;;;;;;;30.47;16.53;;;-1.10;93.40;;;;;;4987877;28;20204;-87
2023/02/09 22:46:21;;;;;;;31.40;17.60;;;-1.20;93.40;;;;;;4991248;28;20203;-88
2023/02/09 22:48:52;;;;;;;33.97;18.23;;;-1.20;93.80;;;;;;4988817;28;20215;-87
2023/02/09 22:51:20;;;;;;;30.97;18.10;;;-1.30;93.70;;;;;;4986351;28;20200;-91
2023/02/09 22:53:47;;;;;;;32.83;18.33;;;-1.30;93.70;;;;;;4980193;28;20210;-88
2023/02/09 22:56:15;;;;;;;29.13;17.17;;;-1.30;93.70;;;;;;4987112;28;20660;-88
2023/02/09 22:58:42;;;;;;;30.30;16.50;;;-1.10;93.10;;;;;;4981718;28;20216;-87
2023/02/09 23:01:10;;;;;;;26.60;15.87;;;-1.10;92.80;;;;;;4987274;28;20308;-88
2023/02/09 23:03:37;;;;;;;25.40;14.70;;;-1.10;92.60;;;;;;4984502;28;20208;-90
2023/02/09 23:06:06;;;;;;;22.43;14.17;;;-1.20;92.50;;;;;;4986120;28;20214;-88
2023/02/09 23:08:34;;;;;;;32.17;15.60;;;-1.20;92.50;;;;;;4989155;28;20230;-87
2023/02/09 23:11:02;;;;;;;23.07;15.00;;;-1.30;92.40;;;;;;4991118;28;20197;-88
2023/02/09 23:13:31;;;;;;;26.63;14.53;;;-1.50;92.80;;;;;;4993510;28;20203;-87
2023/02/09 23:16:08;;;;;;;26.47;13.90;;;-1.70;93.70;;;;;;4991805;28;20680;-88
2023/02/09 23:18:35;;;;;;;22.90;13.57;;;-1.80;93.90;;;;;;4978678;28;20688;-90
2023/02/09 23:21:02;;;;;;;25.13;13.90;;;-1.80;94.40;;;;;;4993170;28;20203;-88
2023/02/09 23:23:29;;;;;;;22.97;13.87;;;-1.70;94.40;;;;;;4988426;28;20232;-89
2023/02/09 23:25:57;;;;;;;22.80;13.00;;;-1.50;93.70;;;;;;4989137;28;20240;-88
2023/02/09 23:28:24;;;;;;;24.50;13.43;;;-1.30;93.70;;;;;;4989801;28;20211;-87
2023/02/09 23:30:51;;;;;;;23.37;13.57;;;-1.20;93.00;;;;;;4992636;28;20213;-87
2023/02/09 23:33:18;;;;;;;24.10;13.07;;;-1.20;92.80;;;;;;5001395;28;20211;-88
2023/02/09 23:35:46;;;;;;;24.67;13.30;;;-1.30;92.70;;;;;;4973613;28;20211;-88
2023/02/09 23:38:12;;;;;;;25.83;13.60;;;-1.40;93.10;;;;;;4987871;28;20212;-88
2023/02/09 23:40:40;;;;;;;23.33;13.27;;;-1.60;93.70;;;;;;5005169;28;20552;-87
2023/02/09 23:43:08;;;;;;;23.00;13.30;;;-1.70;93.70;;;;;;4998072;28;20701;-89
2023/02/09 23:45:35;;;;;;;28.17;13.50;;;-1.80;94.10;;;;;;4987103;28;20204;-87
2023/02/09 23:48:01;;;;;;;24.10;12.77;;;-1.90;94.10;;;;;;4997616;28;20205;-87
2023/02/09 23:50:28;;;;;;;26.57;12.73;;;-1.90;94.20;;;;;;5002919;28;20203;-87
2023/02/09 23:52:55;;;;;;;23.93;13.57;;;-1.90;94.30;;;;;;4991858;28;20220;-89
2023/02/09 23:55:22;;;;;;;22.43;13.47;;;-1.90;94.30;;;;;;5002493;28;20211;-89
2023/02/09 23:57:49;;;;;;;26.70;12.53;;;-1.90;94.10;;;;;;4989593;28;20234;-87
